createdAt,value
2018-07-31T00:03:09.150Z,28.19
2018-07-31T00:08:12.190Z,28.11
2018-07-31T00:13:15.212Z,28.06
2018-07-31T00:18:18.218Z,27.97
2018-07-31T00:23:21.258Z,27.89
2018-07-31T00:28:24.268Z,27.73
2018-07-31T00:33:27.289Z,27.63
2018-07-31T00:38:30.372Z,27.53
2018-07-31T00:43:33.368Z,27.09
2018-07-31T00:48:36.389Z,27.14
2018-07-31T00:53:39.372Z,27.18
2018-07-31T00:58:42.350Z,27.13
2018-07-31T01:03:45.330Z,27.12
2018-07-31T01:08:48.378Z,27.03
2018-07-31T01:13:51.365Z,26.92
2018-07-31T01:18:54.372Z,26.88
2018-07-31T01:23:57.381Z,26.82
2018-07-31T01:29:00.549Z,26.71
2018-07-31T01:34:03.569Z,26.69
2018-07-31T01:39:09.380Z,26.62
2018-07-31T01:44:12.377Z,26.62
2018-07-31T01:49:15.365Z,26.60
2018-07-31T01:54:18.505Z,26.49
2018-07-31T01:59:21.477Z,26.34
2018-07-31T02:04:24.497Z,26.28
2018-07-31T02:09:27.484Z,26.19
2018-07-31T02:14:30.497Z,26.10
2018-07-31T02:19:33.485Z,26.00
2018-07-31T02:24:36.512Z,25.99
2018-07-31T02:29:45.290Z,25.95
2018-07-31T02:34:48.269Z,25.91
2018-07-31T02:39:51.260Z,25.88
2018-07-31T02:44:54.269Z,25.84
2018-07-31T02:49:57.272Z,25.75
2018-07-31T02:55:00.368Z,25.69
2018-07-31T03:00:04.201Z,25.67
2018-07-31T03:05:09.950Z,25.59
2018-07-31T03:10:12.934Z,25.52
2018-07-31T03:15:16.034Z,25.51
2018-07-31T03:20:19.045Z,25.47
2018-07-31T03:25:22.049Z,25.41
2018-07-31T03:30:25.060Z,25.43
2018-07-31T03:35:28.048Z,25.36
2018-07-31T03:40:31.038Z,25.32
2018-07-31T03:45:34.065Z,25.28
2018-07-31T03:50:37.125Z,25.23
2018-07-31T03:55:40.193Z,25.28
2018-07-31T04:00:43.171Z,25.36
2018-07-31T04:05:46.325Z,25.24
2018-07-31T04:10:49.320Z,25.29
2018-07-31T04:15:52.325Z,25.44
2018-07-31T04:20:55.429Z,25.44
2018-07-31T04:25:58.493Z,25.45
2018-07-31T04:31:01.510Z,25.54
2018-07-31T04:36:04.603Z,25.57
2018-07-31T04:41:07.621Z,25.56
2018-07-31T04:46:10.657Z,25.55
2018-07-31T04:51:13.740Z,25.80
2018-07-31T04:56:16.716Z,25.98
2018-07-31T05:01:19.773Z,26.13
2018-07-31T05:06:22.837Z,26.33
2018-07-31T05:11:25.885Z,26.53
2018-07-31T05:16:28.913Z,26.67
2018-07-31T05:21:32.013Z,26.80
2018-07-31T05:26:35.037Z,27.00
2018-07-31T05:31:38.049Z,27.23
2018-07-31T05:36:41.125Z,27.45
2018-07-31T05:41:44.195Z,27.69
2018-07-31T05:46:47.209Z,27.83
2018-07-31T05:51:50.252Z,28.03
2018-07-31T05:56:53.213Z,28.24
2018-07-31T06:01:56.332Z,28.44
2018-07-31T06:06:59.419Z,28.63
2018-07-31T06:12:02.529Z,28.83
2018-07-31T06:17:05.605Z,29.03
2018-07-31T06:22:08.777Z,29.20
2018-07-31T06:27:11.885Z,29.30
2018-07-31T06:32:14.899Z,29.45
2018-07-31T06:37:18.005Z,29.48
2018-07-31T06:42:21.094Z,29.58
2018-07-31T06:47:24.343Z,29.87
2018-07-31T06:52:27.341Z,30.10
2018-07-31T06:57:30.361Z,30.23
2018-07-31T07:02:33.411Z,30.25
2018-07-31T07:07:36.469Z,30.34
2018-07-31T07:12:39.827Z,30.73
2018-07-31T07:17:42.854Z,30.85
2018-07-31T07:22:45.913Z,30.92
2018-07-31T07:27:48.948Z,30.88
2018-07-31T07:32:51.959Z,31.08
2018-07-31T07:37:54.982Z,31.34
2018-07-31T07:42:58.030Z,31.71
2018-07-31T07:48:01.085Z,32.10
2018-07-31T07:53:04.189Z,32.24
2018-07-31T07:58:07.261Z,32.75
2018-07-31T08:03:10.255Z,33.01
2018-07-31T08:08:13.242Z,33.19
2018-07-31T08:13:16.232Z,33.38
2018-07-31T08:18:19.269Z,33.60
2018-07-31T08:23:22.355Z,33.56
2018-07-31T08:28:25.328Z,33.50
2018-07-31T08:33:28.420Z,33.28
2018-07-31T08:38:31.473Z,32.77
2018-07-31T08:43:34.557Z,32.35
2018-07-31T08:48:37.536Z,32.05
2018-07-31T08:53:40.629Z,31.83
2018-07-31T08:58:43.669Z,32.07
2018-07-31T09:03:46.716Z,32.39
2018-07-31T09:08:49.855Z,32.62
2018-07-31T09:13:52.841Z,32.74
2018-07-31T09:18:55.866Z,32.99
2018-07-31T09:23:58.941Z,33.19
2018-07-31T09:29:01.952Z,33.36
2018-07-31T09:34:04.993Z,33.63
2018-07-31T09:39:10.359Z,33.85
2018-07-31T09:44:13.371Z,34.02
2018-07-31T09:49:16.377Z,34.20
2018-07-31T09:54:19.388Z,34.21
2018-07-31T09:59:22.417Z,34.48
2018-07-31T10:04:25.393Z,34.77
2018-07-31T10:09:28.457Z,35.18
2018-07-31T10:14:31.563Z,35.56
2018-07-31T10:19:34.666Z,35.56
2018-07-31T10:24:37.679Z,35.20
2018-07-31T10:29:40.749Z,35.60
2018-07-31T10:34:43.745Z,35.82
2018-07-31T10:39:46.756Z,36.05
2018-07-31T10:44:49.731Z,36.31
2018-07-31T10:49:52.710Z,36.54
2018-07-31T10:54:55.887Z,36.73
2018-07-31T10:59:58.936Z,36.84
2018-07-31T11:05:01.925Z,37.31
2018-07-31T11:10:05.752Z,37.70
2018-07-31T11:15:08.782Z,37.80
2018-07-31T11:20:11.789Z,37.90
2018-07-31T11:25:14.837Z,37.86
2018-07-31T11:30:17.881Z,37.77
2018-07-31T11:35:20.909Z,37.70
2018-07-31T11:40:23.891Z,37.79
2018-07-31T11:45:26.869Z,37.68
2018-07-31T11:50:29.885Z,37.84
2018-07-31T11:55:32.885Z,38.09
2018-07-31T12:00:35.876Z,38.22
2018-07-31T12:05:38.880Z,38.34
2018-07-31T12:10:41.933Z,38.33
2018-07-31T12:15:44.937Z,38.74
2018-07-31T12:20:48.032Z,38.81
2018-07-31T12:25:50.981Z,38.53
2018-07-31T12:30:53.968Z,38.50
2018-07-31T12:35:57.025Z,38.48
2018-07-31T12:41:00.006Z,38.75
2018-07-31T12:46:03.890Z,38.84
2018-07-31T12:51:07.909Z,38.71
2018-07-31T12:56:11.842Z,38.85
2018-07-31T13:01:16.526Z,38.68
2018-07-31T13:06:20.615Z,38.51
2018-07-31T13:11:24.584Z,38.57
2018-07-31T13:16:28.070Z,38.57
2018-07-31T13:21:31.104Z,38.65
2018-07-31T13:26:38.755Z,38.74
2018-07-31T13:31:41.762Z,38.79
2018-07-31T13:36:44.802Z,38.54
2018-07-31T13:41:47.793Z,38.81
2018-07-31T13:46:50.805Z,38.89
2018-07-31T13:51:53.856Z,38.53
2018-07-31T13:56:56.879Z,38.39
2018-07-31T14:01:59.864Z,38.63
2018-07-31T14:07:02.909Z,38.69
2018-07-31T14:12:06.077Z,38.71
2018-07-31T14:17:09.144Z,38.91
2018-07-31T14:22:12.164Z,39.13
2018-07-31T14:27:15.183Z,39.06
2018-07-31T14:32:18.413Z,38.89
2018-07-31T14:37:21.499Z,39.03
2018-07-31T14:42:24.513Z,38.91
2018-07-31T14:47:27.592Z,39.17
2018-07-31T14:52:30.652Z,39.25
2018-07-31T14:57:33.727Z,39.31
2018-07-31T15:02:36.715Z,39.36
2018-07-31T15:07:39.711Z,39.25
2018-07-31T15:12:42.759Z,39.06
2018-07-31T15:17:45.779Z,39.38
2018-07-31T15:22:48.778Z,39.35
2018-07-31T15:27:51.776Z,39.10
2018-07-31T15:32:54.776Z,39.38
2018-07-31T15:37:57.822Z,39.27
2018-07-31T15:43:00.821Z,39.19
2018-07-31T15:48:03.944Z,39.36
2018-07-31T15:53:06.989Z,39.42
2018-07-31T15:58:10.047Z,38.95
2018-07-31T16:03:13.124Z,38.33
2018-07-31T16:08:16.229Z,38.87
2018-07-31T16:13:19.232Z,38.86
2018-07-31T16:18:22.237Z,38.65
2018-07-31T16:23:25.246Z,38.31
2018-07-31T16:28:28.386Z,37.90
2018-07-31T16:33:31.365Z,37.48
2018-07-31T16:38:34.405Z,37.24
2018-07-31T16:43:37.485Z,37.07
2018-07-31T16:48:40.509Z,36.39
2018-07-31T16:53:43.541Z,35.96
2018-07-31T16:58:46.601Z,35.79
2018-07-31T17:03:49.621Z,35.68
2018-07-31T17:08:52.805Z,35.33
2018-07-31T17:13:55.884Z,35.09
2018-07-31T17:18:59.008Z,35.10
2018-07-31T17:24:02.021Z,34.78
2018-07-31T17:29:05.161Z,34.58
2018-07-31T17:34:08.168Z,34.30
2018-07-31T17:39:11.647Z,34.00
2018-07-31T17:44:14.724Z,33.63
2018-07-31T17:49:17.705Z,33.61
2018-07-31T17:54:20.730Z,33.59
2018-07-31T17:59:23.841Z,33.28
2018-07-31T18:04:26.957Z,33.24
2018-07-31T18:09:31.559Z,33.00
2018-07-31T18:14:34.778Z,32.90
2018-07-31T18:19:37.952Z,32.69
2018-07-31T18:24:41.115Z,32.63
2018-07-31T18:29:44.197Z,32.56
2018-07-31T18:34:47.225Z,32.41
2018-07-31T18:39:50.242Z,32.05
2018-07-31T18:44:53.249Z,31.82
2018-07-31T18:49:56.256Z,31.57
2018-07-31T18:54:59.326Z,31.39
2018-07-31T19:00:04.009Z,31.35
2018-07-31T19:05:07.037Z,31.28
2018-07-31T19:10:10.049Z,31.06
2018-07-31T19:15:13.072Z,30.97
2018-07-31T19:20:16.125Z,30.87
2018-07-31T19:25:19.197Z,30.76
2018-07-31T19:30:22.286Z,30.65
2018-07-31T19:35:25.913Z,30.59
2018-07-31T19:40:28.935Z,30.60
2018-07-31T19:45:32.049Z,30.32
2018-07-31T19:50:35.118Z,30.07
2018-07-31T19:55:38.133Z,29.90
2018-07-31T20:00:41.176Z,29.77
2018-07-31T20:05:44.194Z,29.75
2018-07-31T20:10:47.220Z,29.71
2018-07-31T20:15:50.370Z,29.77
2018-07-31T20:20:53.448Z,29.70
2018-07-31T20:25:56.477Z,29.64
2018-07-31T20:30:59.542Z,29.44
2018-07-31T20:36:02.685Z,29.33
2018-07-31T20:41:05.793Z,29.20
2018-07-31T20:46:08.828Z,29.20
2018-07-31T20:51:11.873Z,29.12
2018-07-31T20:56:14.888Z,29.23
2018-07-31T21:01:17.908Z,29.10
2018-07-31T21:06:21.003Z,29.03
2018-07-31T21:11:24.009Z,28.92
2018-07-31T21:16:27.042Z,28.85
2018-07-31T21:21:30.101Z,28.73
2018-07-31T21:26:33.120Z,28.61
2018-07-31T21:31:36.110Z,28.55
2018-07-31T21:36:39.133Z,28.53
2018-07-31T21:41:42.170Z,28.54
2018-07-31T21:46:45.217Z,28.39
2018-07-31T21:51:48.222Z,28.26
2018-07-31T21:56:51.296Z,28.14
2018-07-31T22:01:54.309Z,28.05
2018-07-31T22:06:57.346Z,27.98
2018-07-31T22:12:00.380Z,27.81
2018-07-31T22:17:03.398Z,27.62
2018-07-31T22:22:06.710Z,27.27
2018-07-31T22:27:09.773Z,27.00
2018-07-31T22:32:12.789Z,26.82
2018-07-31T22:37:15.808Z,26.78
2018-07-31T22:42:18.830Z,26.72
2018-07-31T22:47:22.163Z,26.73
2018-07-31T22:52:25.256Z,26.78
2018-07-31T22:57:28.333Z,26.76
2018-07-31T23:02:31.384Z,26.69
2018-07-31T23:07:34.538Z,26.54
2018-07-31T23:12:37.525Z,25.63
2018-07-31T23:17:40.681Z,24.01
2018-07-31T23:22:45.341Z,23.71
2018-07-31T23:27:48.352Z,23.17
2018-07-31T23:32:51.397Z,22.93
2018-07-31T23:37:54.497Z,22.92
2018-07-31T23:42:57.469Z,23.01
2018-07-31T23:48:00.494Z,23.09
2018-07-31T23:53:03.560Z,23.21
2018-07-31T23:58:06.641Z,23.18
